Impacts METAR Board
IDs:

KBOS - Boston/Logan Intl, MA, US

Updated at: 1200 UTC 16 Sep 2019
Potential Impact None Slight Moderate High
Time 16/00Z 16/01Z 16/02Z 16/03Z 16/04Z 16/05Z 16/06Z 16/07Z 16/08Z 16/09Z 16/10Z 16/11Z 16/12Z
Temp76 75 74 72 71 70 69 67 67 66 64 64 65
Dewpt52 52 53 54 55 55 55 55 55 54 51 49 48
Altim30.02 30.03 30.03 30.03 30.03 30.03 30.03 30.03 30.04 30.04 30.05 30.08 30.07
VIS10 10 10 10 10 10 10 10 10 10 10 10 10
CIG140 140 -- -- 60 50 50 -- 250 -- 220 250 250
CoverOVCOVCSCTFEWOVCOVCOVCFEWOVCSCTBKNBKNBKN
FltCatVFRVFRVFRVFRVFRVFRVFRVFRVFRVFRVFRVFRVFR
WX--------------------------
WDir280270280290290290290280290330350330330
WSpd9 6 9 6 7 6 6 6 5 6 6 8 9
WGst-- -- -- -- -- -- -- -- -- -- -- -- --
Raw hourly METARs
KBOS 152354Z 28009KT 10SM OVC140 24/11 A3002 RMK AO2 SLP166 T02440111 10272 20244 50001 $
KBOS 160054Z 27006KT 10SM FEW120 OVC140 24/11 A3003 RMK AO2 SLP167 T02390111 $
KBOS 160154Z 28009KT 10SM FEW140 SCT180 23/12 A3003 RMK AO2 SLP167 T02330117 $
KBOS 160254Z 29006KT 10SM FEW080 FEW120 22/12 A3003 RMK AO2 SLP167 T02220122 51001 $
KBOS 160354Z 29007KT 10SM SCT055 OVC060 22/13 A3003 RMK AO2 SLP168 T02170128 $
KBOS 160454Z 29006KT 10SM OVC050 21/13 A3003 RMK AO2 SLP169 T02110128 402720200 $
KBOS 160554Z 29006KT 10SM BKN050 OVC250 21/13 A3003 RMK AO2 SLP167 T02060128 10244 20206 50000 $
KBOS 160654Z 28006KT 10SM FEW220 FEW250 19/13 A3003 RMK AO2 SLP168 T01940128 $
KBOS 160754Z 29005KT 10SM SCT220 OVC250 19/13 A3004 RMK AO2 SLP170 T01940128 $
KBOS 160854Z 33006KT 10SM SCT220 SCT250 19/12 A3004 RMK AO2 SLP171 T01890122 53004 $
KBOS 160954Z 35006KT 10SM SCT200 BKN220 BKN250 18/11 A3005 RMK AO2 SLP175 T01780106 $
KBOS 161054Z 33008KT 10SM FEW070 SCT200 BKN250 18/09 A3008 RMK AO2 SLP184 T01780094
KBOS 161154Z 33009KT 10SM FEW090 SCT180 BKN250 18/09 A3007 RMK AO2 SLP183 T01830089 10206 20178 50012



Page loaded:  12:05 UTC  |   05:05 AM Pacific  |   06:05 AM Mountain  |   07:05 AM Central  |   08:05 AM Eastern

 

ADVISORIES

FORECASTS

FORECASTS

OBSERVATIONS

USER TOOLS

ABOUT US